createdAt,value
2019-02-02T00:01:40.861Z,1.50
2019-02-02T00:04:11.402Z,1.50
2019-02-02T00:06:41.910Z,1.50
2019-02-02T00:09:12.443Z,1.50
2019-02-02T00:11:43.021Z,1.50
2019-02-02T00:14:13.491Z,1.50
2019-02-02T00:16:43.991Z,1.50
2019-02-02T00:19:14.464Z,1.50
2019-02-02T00:21:44.948Z,1.50
2019-02-02T00:24:15.507Z,1.50
2019-02-02T00:26:46.058Z,1.50
2019-02-02T00:29:16.682Z,1.50
2019-02-02T00:31:47.150Z,1.50
2019-02-02T00:34:17.679Z,1.50
2019-02-02T00:36:48.130Z,1.50
2019-02-02T00:39:18.639Z,1.50
2019-02-02T00:41:49.169Z,1.50
2019-02-02T00:44:19.657Z,1.40
2019-02-02T00:46:50.129Z,1.40
2019-02-02T00:49:20.615Z,1.40
2019-02-02T00:51:51.075Z,1.50
2019-02-02T00:54:21.576Z,1.50
2019-02-02T00:56:52.048Z,1.50
2019-02-02T00:59:22.559Z,1.50
2019-02-02T01:01:53.021Z,1.50
2019-02-02T01:04:23.510Z,1.40
2019-02-02T01:06:53.978Z,1.50
2019-02-02T01:09:24.975Z,1.50
2019-02-02T01:11:55.561Z,1.50
2019-02-02T01:14:26.193Z,1.50
2019-02-02T01:16:56.800Z,1.60
2019-02-02T01:19:27.352Z,1.50
2019-02-02T01:21:57.873Z,1.50
2019-02-02T01:24:28.372Z,1.50
2019-02-02T01:26:58.945Z,1.50
2019-02-02T01:29:29.409Z,1.50
2019-02-02T01:31:59.974Z,1.40
2019-02-02T01:34:30.457Z,1.40
2019-02-02T01:37:00.949Z,1.40
2019-02-02T01:39:31.404Z,1.40
2019-02-02T01:42:01.962Z,1.50
2019-02-02T01:44:32.427Z,1.50
2019-02-02T01:47:02.914Z,1.60
2019-02-02T01:49:33.417Z,1.60
2019-02-02T01:52:03.872Z,1.50
2019-02-02T01:54:34.369Z,1.50
2019-02-02T01:57:04.827Z,1.40
2019-02-02T01:59:35.317Z,1.40
2019-02-02T02:02:05.880Z,1.40
2019-02-02T02:04:36.332Z,1.40
2019-02-02T02:07:06.820Z,1.40
2019-02-02T02:09:37.284Z,1.40
2019-02-02T02:12:07.840Z,1.50
2019-02-02T02:14:38.333Z,1.50
2019-02-02T02:17:08.891Z,1.50
2019-02-02T02:19:39.361Z,1.50
2019-02-02T02:22:09.867Z,1.50
2019-02-02T02:24:40.356Z,1.50
2019-02-02T02:27:10.846Z,1.50
2019-02-02T02:29:41.334Z,1.50
2019-02-02T02:32:11.796Z,1.50
2019-02-02T02:34:42.298Z,1.50
2019-02-02T02:37:12.827Z,1.60
2019-02-02T02:39:43.315Z,1.60
2019-02-02T02:42:13.876Z,1.60
2019-02-02T02:44:44.351Z,1.60
2019-02-02T02:47:14.886Z,1.60
2019-02-02T02:49:45.402Z,1.60
2019-02-02T02:52:15.866Z,1.60
2019-02-02T02:54:46.360Z,1.50
2019-02-02T02:57:16.882Z,1.50
2019-02-02T02:59:47.335Z,1.60
2019-02-02T03:02:17.897Z,1.60
2019-02-02T03:04:48.388Z,1.60
2019-02-02T03:07:19.576Z,1.60
2019-02-02T03:09:50.399Z,1.50
2019-02-02T03:12:20.863Z,1.60
2019-02-02T03:14:51.320Z,1.60
2019-02-02T03:17:21.799Z,1.60
2019-02-02T03:19:52.274Z,1.60
2019-02-02T03:22:22.758Z,1.60
2019-02-02T03:24:53.219Z,1.60
2019-02-02T03:27:23.703Z,1.60
2019-02-02T03:29:54.166Z,1.70
2019-02-02T03:32:24.673Z,1.70
2019-02-02T03:34:55.134Z,1.70
2019-02-02T03:37:25.629Z,1.60
2019-02-02T03:39:56.117Z,1.60
2019-02-02T03:42:26.577Z,1.70
2019-02-02T03:44:57.084Z,1.70
2019-02-02T03:47:27.534Z,1.70
2019-02-02T03:49:58.019Z,1.70
2019-02-02T03:52:28.486Z,1.70
2019-02-02T03:54:58.982Z,1.70
2019-02-02T03:57:29.472Z,1.70
2019-02-02T03:59:59.938Z,1.60
2019-02-02T04:02:30.420Z,1.60
2019-02-02T04:05:00.894Z,1.60
2019-02-02T04:07:31.382Z,1.60
2019-02-02T04:10:01.878Z,1.60
2019-02-02T04:12:32.426Z,1.60
2019-02-02T04:15:02.870Z,1.60
2019-02-02T04:17:33.366Z,1.70
2019-02-02T04:20:06.999Z,1.60
2019-02-02T04:22:37.505Z,1.60
2019-02-02T04:25:09.274Z,1.60
2019-02-02T04:27:39.785Z,1.70
2019-02-02T04:30:17.731Z,1.70
2019-02-02T04:32:48.384Z,1.70
2019-02-02T04:35:19.354Z,1.70
2019-02-02T04:37:49.940Z,1.70
2019-02-02T04:40:20.473Z,1.70
2019-02-02T04:42:50.929Z,1.80
2019-02-02T04:45:21.644Z,1.80
2019-02-02T04:47:52.102Z,1.80
2019-02-02T04:50:23.042Z,1.80
2019-02-02T04:52:53.501Z,1.70
2019-02-02T04:55:24.077Z,1.70
2019-02-02T04:57:54.530Z,1.70
2019-02-02T05:00:28.541Z,1.70
2019-02-02T05:02:59.030Z,1.70
2019-02-02T05:05:29.489Z,1.80
2019-02-02T05:08:00.048Z,1.80
2019-02-02T05:10:30.501Z,1.80
2019-02-02T05:13:00.996Z,1.80
2019-02-02T05:15:31.461Z,1.70
2019-02-02T05:18:01.963Z,1.70
2019-02-02T05:20:32.423Z,1.70
2019-02-02T05:23:02.913Z,1.70
2019-02-02T05:25:33.383Z,1.80
2019-02-02T05:28:03.960Z,1.70
2019-02-02T05:30:34.471Z,1.80
2019-02-02T05:33:05.203Z,1.80
2019-02-02T05:35:35.777Z,1.80
2019-02-02T05:38:06.381Z,1.80
2019-02-02T05:40:36.878Z,1.80
2019-02-02T05:43:07.336Z,1.90
2019-02-02T05:45:37.822Z,1.90
2019-02-02T05:48:08.293Z,1.90
2019-02-02T05:50:38.794Z,1.90
2019-02-02T05:53:09.259Z,1.90
2019-02-02T05:55:39.743Z,1.90
2019-02-02T05:58:10.249Z,1.80
2019-02-02T06:00:45.011Z,1.90
2019-02-02T06:03:15.516Z,1.80
2019-02-02T06:05:45.977Z,1.80
2019-02-02T06:08:16.473Z,1.80
2019-02-02T06:10:46.921Z,1.80
2019-02-02T06:13:17.420Z,1.80
2019-02-02T06:15:47.884Z,1.80
2019-02-02T06:18:18.517Z,1.80
2019-02-02T06:20:49.010Z,1.80
2019-02-02T06:23:19.478Z,1.80
2019-02-02T06:25:49.960Z,1.80
2019-02-02T06:28:20.412Z,1.80
2019-02-02T06:30:50.905Z,1.90
2019-02-02T06:33:21.394Z,1.80
2019-02-02T06:35:51.848Z,1.80
2019-02-02T06:38:22.340Z,1.80
2019-02-02T06:40:52.849Z,1.80
2019-02-02T06:43:24.195Z,1.80
2019-02-02T06:45:54.685Z,1.90
2019-02-02T06:48:26.361Z,1.80
2019-02-02T06:50:56.881Z,1.90
2019-02-02T06:53:27.339Z,1.90
2019-02-02T06:55:57.832Z,1.90
2019-02-02T06:58:28.290Z,1.90
2019-02-02T07:00:58.807Z,1.90
2019-02-02T07:03:30.199Z,1.90
2019-02-02T07:06:00.665Z,1.90
2019-02-02T07:08:31.239Z,1.90
2019-02-02T07:11:01.737Z,2.00
2019-02-02T07:13:32.228Z,2.00
2019-02-02T07:16:02.696Z,2.10
2019-02-02T07:18:33.261Z,2.10
2019-02-02T07:21:03.804Z,2.10
2019-02-02T07:23:34.308Z,2.10
2019-02-02T07:26:04.761Z,2.10
2019-02-02T07:28:35.249Z,2.10
2019-02-02T07:31:07.473Z,2.00
2019-02-02T07:33:37.963Z,2.10
2019-02-02T07:36:08.426Z,2.10
2019-02-02T07:38:38.907Z,2.00
2019-02-02T07:41:09.379Z,2.00
2019-02-02T07:43:39.960Z,2.10
2019-02-02T07:46:15.049Z,2.10
2019-02-02T07:48:42.619Z,2.10
2019-02-02T07:51:13.142Z,2.10
2019-02-02T07:53:43.567Z,2.10
2019-02-02T07:56:14.093Z,2.10
2019-02-02T07:58:44.563Z,2.20
2019-02-02T08:01:15.075Z,2.20
2019-02-02T08:03:45.569Z,2.20
2019-02-02T08:06:17.614Z,2.30
2019-02-02T08:08:50.258Z,2.20
2019-02-02T08:11:20.743Z,2.20
2019-02-02T08:13:51.278Z,2.20
2019-02-02T08:16:23.546Z,2.30
2019-02-02T08:18:54.015Z,2.20
2019-02-02T08:21:24.539Z,2.30
2019-02-02T08:23:57.393Z,2.30
2019-02-02T08:26:28.994Z,2.40
2019-02-02T08:28:59.491Z,2.40
2019-02-02T08:31:29.952Z,2.50
2019-02-02T08:34:00.465Z,2.50
2019-02-02T08:36:31.000Z,2.60
2019-02-02T08:39:01.491Z,2.60
2019-02-02T08:41:33.737Z,2.60
2019-02-02T08:44:05.807Z,2.60
2019-02-02T08:46:36.333Z,2.60
2019-02-02T08:49:08.471Z,2.60
2019-02-02T08:51:38.926Z,2.70
2019-02-02T08:54:09.499Z,2.70
2019-02-02T08:56:39.985Z,2.70
2019-02-02T08:59:12.109Z,2.70
2019-02-02T09:01:42.573Z,2.70
2019-02-02T09:04:13.132Z,2.70
2019-02-02T09:06:43.903Z,2.70
2019-02-02T09:09:14.404Z,2.70
2019-02-02T09:11:44.864Z,2.80
2019-02-02T09:14:15.351Z,2.80
2019-02-02T09:16:45.865Z,2.80
2019-02-02T09:19:16.354Z,2.80
2019-02-02T09:21:46.846Z,2.80
2019-02-02T09:24:17.307Z,2.80
2019-02-02T09:26:47.890Z,2.80
2019-02-02T09:29:18.357Z,2.90
2019-02-02T09:31:48.929Z,2.90
2019-02-02T09:34:19.424Z,2.90
2019-02-02T09:36:49.890Z,2.90
2019-02-02T09:39:21.380Z,2.90
2019-02-02T09:41:51.949Z,2.90
2019-02-02T09:44:22.446Z,2.90
2019-02-02T09:46:52.929Z,2.90
2019-02-02T09:49:26.083Z,2.90
2019-02-02T09:51:56.550Z,2.90
2019-02-02T09:54:27.121Z,2.90
2019-02-02T09:56:57.638Z,3.00
2019-02-02T09:59:28.138Z,3.00
2019-02-02T10:01:58.669Z,3.10
2019-02-02T10:04:29.162Z,3.00
2019-02-02T10:06:59.648Z,3.00
2019-02-02T10:09:30.180Z,2.90
2019-02-02T10:12:00.679Z,3.00
2019-02-02T10:14:31.402Z,3.00
2019-02-02T10:17:03.023Z,3.00
2019-02-02T10:19:33.502Z,3.10
2019-02-02T10:22:04.071Z,3.10
2019-02-02T10:24:36.132Z,3.10
2019-02-02T10:27:06.661Z,3.00
2019-02-02T10:29:37.145Z,3.00
2019-02-02T10:32:07.662Z,3.10
2019-02-02T10:34:38.179Z,3.00
2019-02-02T10:37:08.664Z,3.00
2019-02-02T10:39:40.667Z,3.00
2019-02-02T10:42:11.094Z,3.00
2019-02-02T10:44:41.611Z,3.00
2019-02-02T10:47:12.103Z,3.00
2019-02-02T10:49:42.731Z,3.00
2019-02-02T10:52:13.209Z,3.00
2019-02-02T10:54:43.720Z,3.10
2019-02-02T10:57:14.265Z,3.10
2019-02-02T10:59:44.759Z,3.10
2019-02-02T11:02:17.702Z,3.10
2019-02-02T11:04:47.404Z,3.10
2019-02-02T11:07:17.945Z,3.10
2019-02-02T11:09:48.554Z,3.20
2019-02-02T11:12:18.992Z,3.20
2019-02-02T11:14:51.051Z,3.20
2019-02-02T11:17:21.529Z,3.20
2019-02-02T11:19:52.225Z,3.20
2019-02-02T11:22:22.660Z,3.20
2019-02-02T11:24:53.231Z,3.20
2019-02-02T11:27:23.780Z,3.10
2019-02-02T11:29:56.697Z,3.20
2019-02-02T11:32:27.155Z,3.10
2019-02-02T11:34:57.689Z,3.00
2019-02-02T11:37:28.243Z,3.10
2019-02-02T11:39:58.715Z,3.10
2019-02-02T11:42:29.232Z,3.10
2019-02-02T11:45:01.303Z,3.10
2019-02-02T11:47:33.396Z,3.10
2019-02-02T11:50:05.477Z,3.10
2019-02-02T11:52:35.981Z,3.10
2019-02-02T11:55:11.183Z,3.10
2019-02-02T11:57:42.227Z,3.20
2019-02-02T12:00:35.758Z,3.20
2019-02-02T12:03:06.527Z,3.20
2019-02-02T12:05:37.045Z,3.20
2019-02-02T12:08:07.675Z,3.30
2019-02-02T12:10:38.307Z,3.30
2019-02-02T12:13:08.983Z,3.30
2019-02-02T12:15:39.491Z,3.30
2019-02-02T12:18:12.069Z,3.40
2019-02-02T12:20:42.995Z,3.40
2019-02-02T12:23:13.459Z,3.40
2019-02-02T12:25:43.962Z,3.50
2019-02-02T12:28:14.439Z,3.50
2019-02-02T12:30:44.936Z,3.50
2019-02-02T12:33:15.431Z,3.50
2019-02-02T12:35:45.898Z,3.50
2019-02-02T12:38:16.386Z,3.50
2019-02-02T12:40:46.878Z,3.40
2019-02-02T12:43:17.449Z,3.40
2019-02-02T12:45:49.954Z,3.40
2019-02-02T12:48:20.413Z,3.40
2019-02-02T12:50:50.921Z,3.40
2019-02-02T12:53:21.497Z,3.30
2019-02-02T12:55:52.056Z,3.30
2019-02-02T12:58:22.551Z,3.20
2019-02-02T13:00:53.075Z,3.20
2019-02-02T13:03:23.590Z,3.20
2019-02-02T13:05:54.090Z,3.30
2019-02-02T13:08:24.542Z,3.30
2019-02-02T13:10:55.173Z,3.30
2019-02-02T13:13:25.635Z,3.30
2019-02-02T13:15:56.215Z,3.30
2019-02-02T13:18:26.685Z,3.30
2019-02-02T13:20:57.241Z,3.40
2019-02-02T13:23:27.849Z,3.40
2019-02-02T13:26:05.490Z,3.30
2019-02-02T13:28:30.537Z,3.30
2019-02-02T13:31:04.419Z,3.30
2019-02-02T13:33:34.873Z,3.20
2019-02-02T13:36:06.009Z,3.20
2019-02-02T13:38:36.468Z,3.20
2019-02-02T13:41:07.047Z,3.20
2019-02-02T13:43:40.363Z,3.20
2019-02-02T13:46:10.876Z,3.20
2019-02-02T13:48:41.354Z,3.30
2019-02-02T13:51:11.863Z,3.20
2019-02-02T13:53:42.330Z,3.20
2019-02-02T13:56:12.839Z,3.20
2019-02-02T13:58:43.312Z,3.20
2019-02-02T14:01:13.842Z,3.20
2019-02-02T14:03:44.317Z,3.20
2019-02-02T14:06:14.888Z,3.20
2019-02-02T14:08:45.384Z,3.30
2019-02-02T14:11:15.982Z,3.30
2019-02-02T14:13:46.491Z,3.30
2019-02-02T14:16:17.230Z,3.30
2019-02-02T14:18:47.696Z,3.30
2019-02-02T14:21:18.298Z,3.30
2019-02-02T14:23:48.790Z,3.30
2019-02-02T14:26:19.272Z,3.30
2019-02-02T14:28:52.883Z,3.30
2019-02-02T14:31:24.969Z,3.30
2019-02-02T14:33:55.723Z,3.30
2019-02-02T14:36:26.226Z,3.30
2019-02-02T14:38:58.205Z,3.30
2019-02-02T14:41:28.720Z,3.30
2019-02-02T14:43:59.214Z,3.40
2019-02-02T14:46:29.943Z,3.30
2019-02-02T14:49:01.135Z,3.30
2019-02-02T14:51:31.598Z,3.20
2019-02-02T14:54:03.723Z,3.20
2019-02-02T14:56:34.208Z,3.10
2019-02-02T14:59:04.722Z,3.10
2019-02-02T15:01:35.196Z,3.10
2019-02-02T15:04:06.054Z,3.00
2019-02-02T15:06:36.512Z,3.00
2019-02-02T15:09:08.410Z,3.00
2019-02-02T15:11:38.906Z,3.00
2019-02-02T15:14:10.696Z,3.00
2019-02-02T15:16:41.380Z,3.00
2019-02-02T15:19:11.921Z,3.00
2019-02-02T15:21:43.493Z,2.90
2019-02-02T15:24:14.079Z,2.90
2019-02-02T15:26:44.543Z,2.90
2019-02-02T15:29:15.595Z,2.90
2019-02-02T15:31:46.125Z,2.90
2019-02-02T15:34:16.693Z,2.90
2019-02-02T15:36:47.713Z,2.90
2019-02-02T15:39:21.823Z,2.90
2019-02-02T15:41:53.339Z,2.90
2019-02-02T15:44:23.959Z,3.00
2019-02-02T15:46:54.501Z,3.00
2019-02-02T15:49:24.999Z,3.00
2019-02-02T15:51:55.524Z,3.00
2019-02-02T15:54:26.168Z,3.00
2019-02-02T15:56:56.637Z,3.00
2019-02-02T15:59:27.154Z,3.00
2019-02-02T16:01:57.619Z,2.90
2019-02-02T16:04:28.202Z,2.90
2019-02-02T16:06:58.779Z,3.00
2019-02-02T16:09:29.308Z,2.90
2019-02-02T16:11:59.806Z,2.90
2019-02-02T16:14:30.334Z,2.90
2019-02-02T16:17:00.881Z,2.90
2019-02-02T16:19:31.400Z,2.90
2019-02-02T16:22:01.856Z,2.90
2019-02-02T16:24:33.741Z,2.90
2019-02-02T16:27:04.838Z,2.90
2019-02-02T16:29:35.330Z,2.90
2019-02-02T16:32:05.979Z,2.90
2019-02-02T16:34:36.441Z,2.90
2019-02-02T16:37:06.967Z,2.90
2019-02-02T16:39:37.449Z,2.90
2019-02-02T16:42:08.027Z,2.90
2019-02-02T16:44:38.484Z,2.90
2019-02-02T16:47:10.110Z,2.90
2019-02-02T16:49:40.687Z,2.90
2019-02-02T16:52:11.147Z,2.90
2019-02-02T16:54:41.644Z,2.90
2019-02-02T16:57:12.100Z,2.90
2019-02-02T16:59:42.601Z,3.00
2019-02-02T17:02:13.082Z,3.00
2019-02-02T17:04:43.586Z,2.90
2019-02-02T17:07:14.114Z,2.90
2019-02-02T17:09:44.602Z,2.90
2019-02-02T17:12:15.152Z,2.90
2019-02-02T17:14:45.666Z,2.90
2019-02-02T17:17:16.134Z,2.90
2019-02-02T17:19:46.630Z,2.90
2019-02-02T17:22:17.123Z,2.90
2019-02-02T17:24:47.579Z,2.90
2019-02-02T17:27:18.098Z,2.90
2019-02-02T17:29:48.631Z,2.90
2019-02-02T17:32:19.119Z,2.90
2019-02-02T17:34:49.606Z,2.90
2019-02-02T17:37:23.314Z,2.90
2019-02-02T17:39:53.827Z,2.90
2019-02-02T17:42:26.587Z,2.90
2019-02-02T17:44:57.086Z,2.90
2019-02-02T17:47:27.555Z,2.80
2019-02-02T17:49:58.036Z,2.80
2019-02-02T17:52:28.510Z,2.80
2019-02-02T17:54:59.052Z,2.80
2019-02-02T17:57:29.524Z,2.80
2019-02-02T18:00:00.025Z,2.90
2019-02-02T18:02:30.496Z,2.90
2019-02-02T18:05:01.006Z,2.80
2019-02-02T18:07:31.471Z,2.90
2019-02-02T18:10:01.969Z,2.90
2019-02-02T18:12:32.439Z,2.80
2019-02-02T18:15:02.947Z,2.80
2019-02-02T18:17:33.405Z,2.80
2019-02-02T18:20:05.583Z,2.90
2019-02-02T18:22:36.162Z,2.90
2019-02-02T18:25:16.298Z,2.80
2019-02-02T18:27:46.923Z,2.90
2019-02-02T18:30:24.060Z,2.80
2019-02-02T18:32:54.904Z,2.80
2019-02-02T18:35:25.451Z,2.80
2019-02-02T18:37:56.022Z,2.70
2019-02-02T18:40:28.607Z,2.80
2019-02-02T18:42:59.174Z,2.80
2019-02-02T18:45:31.072Z,2.80
2019-02-02T18:48:01.575Z,2.80
2019-02-02T18:50:32.082Z,2.70
2019-02-02T18:53:03.233Z,2.80
2019-02-02T18:55:38.446Z,2.80
2019-02-02T18:58:09.050Z,2.80
2019-02-02T19:00:39.552Z,2.80
2019-02-02T19:03:10.160Z,2.80
2019-02-02T19:05:43.101Z,2.80
2019-02-02T19:08:13.698Z,2.80
2019-02-02T19:10:44.328Z,2.80
2019-02-02T19:13:14.797Z,2.80
2019-02-02T19:15:45.365Z,2.80
2019-02-02T19:18:15.881Z,2.80
2019-02-02T19:20:46.436Z,2.90
2019-02-02T19:23:24.904Z,2.90
2019-02-02T19:25:49.113Z,2.90
2019-02-02T19:28:19.654Z,2.90
2019-02-02T19:30:50.224Z,2.90
2019-02-02T19:33:20.758Z,2.90
2019-02-02T19:35:52.148Z,2.80
2019-02-02T19:38:22.657Z,2.80
2019-02-02T19:40:53.132Z,2.80
2019-02-02T19:43:23.618Z,2.80
2019-02-02T19:45:54.391Z,2.80
2019-02-02T19:48:24.815Z,2.80
2019-02-02T19:50:55.319Z,2.80
2019-02-02T19:53:25.814Z,2.70
2019-02-02T19:55:56.391Z,3.00
2019-02-02T19:58:26.852Z,2.80
2019-02-02T20:00:57.342Z,2.80
2019-02-02T20:03:27.806Z,2.80
2019-02-02T20:05:58.305Z,2.80
2019-02-02T20:08:28.780Z,2.80
2019-02-02T20:10:59.272Z,2.80
2019-02-02T20:13:29.859Z,2.80
2019-02-02T20:16:00.360Z,2.70
2019-02-02T20:18:30.829Z,2.70
2019-02-02T20:21:01.334Z,2.70
2019-02-02T20:23:35.315Z,2.80
2019-02-02T20:26:04.254Z,2.80
2019-02-02T20:28:34.749Z,2.80
2019-02-02T20:31:05.356Z,2.80
2019-02-02T20:33:35.853Z,2.80
2019-02-02T20:36:06.615Z,2.80
2019-02-02T20:38:39.942Z,2.80
2019-02-02T20:41:09.270Z,2.80
2019-02-02T20:43:39.865Z,2.80
2019-02-02T20:46:10.312Z,2.80
2019-02-02T20:48:40.797Z,2.80
2019-02-02T20:51:11.303Z,2.80
2019-02-02T20:53:41.765Z,2.80
2019-02-02T20:56:12.272Z,2.80
2019-02-02T20:58:42.715Z,2.80
2019-02-02T21:01:13.213Z,2.80
2019-02-02T21:03:43.749Z,2.90
2019-02-02T21:06:14.246Z,2.80
2019-02-02T21:08:44.759Z,2.80
2019-02-02T21:11:15.228Z,2.80
2019-02-02T21:13:46.200Z,2.70
2019-02-02T21:16:16.679Z,2.60
2019-02-02T21:18:47.202Z,2.60
2019-02-02T21:21:17.710Z,2.70
2019-02-02T21:23:48.191Z,2.70
2019-02-02T21:26:18.858Z,2.80
2019-02-02T21:28:50.766Z,2.80
2019-02-02T21:31:21.558Z,2.80
2019-02-02T21:33:52.635Z,2.70
2019-02-02T21:36:23.146Z,2.70
2019-02-02T21:38:53.595Z,2.70
2019-02-02T21:41:25.118Z,2.80
2019-02-02T21:43:55.591Z,2.80
2019-02-02T21:46:26.073Z,2.70
2019-02-02T21:48:56.569Z,2.70
2019-02-02T21:51:27.051Z,2.70
2019-02-02T21:53:57.615Z,2.70
2019-02-02T21:56:28.091Z,2.70
2019-02-02T21:58:58.973Z,2.70
2019-02-02T22:01:29.488Z,2.70
2019-02-02T22:03:59.991Z,2.70
2019-02-02T22:06:30.488Z,2.70
2019-02-02T22:09:00.960Z,2.70
2019-02-02T22:11:31.449Z,2.70
2019-02-02T22:14:01.929Z,2.70
2019-02-02T22:16:32.439Z,2.70
2019-02-02T22:19:02.948Z,2.70
2019-02-02T22:21:33.499Z,2.70
2019-02-02T22:24:04.062Z,2.80
2019-02-02T22:26:34.774Z,2.80
2019-02-02T22:29:05.520Z,2.80
2019-02-02T22:31:36.149Z,2.80
2019-02-02T22:34:06.678Z,2.80
2019-02-02T22:36:37.172Z,2.80
2019-02-02T22:39:09.946Z,2.80
2019-02-02T22:41:40.435Z,2.80
2019-02-02T22:44:10.904Z,2.70
2019-02-02T22:46:41.398Z,2.70
2019-02-02T22:49:11.973Z,2.70
2019-02-02T22:51:42.468Z,2.70
2019-02-02T22:54:12.949Z,2.80
2019-02-02T22:56:44.362Z,2.80
2019-02-02T22:59:15.186Z,2.90
2019-02-02T23:01:45.816Z,2.90
2019-02-02T23:04:21.021Z,3.00
2019-02-02T23:07:02.384Z,3.00
2019-02-02T23:10:18.954Z,3.00
2019-02-02T23:13:09.033Z,2.90
2019-02-02T23:15:52.443Z,2.80
2019-02-02T23:18:23.279Z,2.90
2019-02-02T23:21:00.520Z,2.80
2019-02-02T23:23:32.049Z,2.80
2019-02-02T23:26:02.755Z,2.80
2019-02-02T23:28:33.256Z,2.80
2019-02-02T23:31:03.862Z,2.80
2019-02-02T23:33:34.356Z,2.70
2019-02-02T23:36:04.897Z,2.70
2019-02-02T23:38:36.928Z,2.80
2019-02-02T23:41:07.541Z,2.80
2019-02-02T23:43:38.089Z,2.80
2019-02-02T23:46:08.618Z,2.80
2019-02-02T23:48:39.114Z,2.80
2019-02-02T23:51:09.647Z,2.80
2019-02-02T23:53:40.127Z,2.80
2019-02-02T23:56:10.776Z,2.80
2019-02-02T23:58:41.248Z,2.80
